createdAt,value
2023-02-11T00:01:49.768Z,27.02
2023-02-11T00:03:51.754Z,27.27
2023-02-11T00:06:00.713Z,26.65
2023-02-11T00:08:02.386Z,24.27
2023-02-11T00:10:04.868Z,25.98
2023-02-11T00:12:06.428Z,25.60
2023-02-11T00:14:08.061Z,25.00
2023-02-11T00:16:15.918Z,24.30
2023-02-11T00:18:17.772Z,26.85
2023-02-11T00:20:19.377Z,25.95
2023-02-11T00:22:20.818Z,26.20
2023-02-11T00:24:22.220Z,26.00
2023-02-11T00:26:32.596Z,25.95
2023-02-11T00:28:34.129Z,27.13
2023-02-11T00:30:36.188Z,26.52
2023-02-11T00:32:37.809Z,25.92
2023-02-11T00:34:39.344Z,26.92
2023-02-11T00:36:41.311Z,27.55
2023-02-11T00:38:44.506Z,26.23
2023-02-11T00:40:45.936Z,27.33
2023-02-11T00:42:47.532Z,26.38
2023-02-11T00:44:49.079Z,28.27
2023-02-11T00:46:50.516Z,25.77
2023-02-11T00:48:52.105Z,28.33
2023-02-11T00:50:53.637Z,26.80
2023-02-11T00:52:55.082Z,26.50
2023-02-11T00:54:56.705Z,28.40
2023-02-11T00:56:58.252Z,26.05
2023-02-11T00:58:59.671Z,24.60
2023-02-11T01:01:01.296Z,26.52
2023-02-11T01:03:03.014Z,26.60
2023-02-11T01:05:04.909Z,28.27
2023-02-11T01:07:06.522Z,28.15
2023-02-11T01:09:08.053Z,27.42
2023-02-11T01:11:16.734Z,28.83
2023-02-11T01:13:18.358Z,29.73
2023-02-11T01:15:20.774Z,25.98
2023-02-11T01:17:22.207Z,27.35
2023-02-11T01:19:23.768Z,30.15
2023-02-11T01:21:25.681Z,25.42
2023-02-11T01:23:27.306Z,25.25
2023-02-11T01:25:28.900Z,28.20
2023-02-11T01:27:33.096Z,25.33
2023-02-11T01:29:34.566Z,27.50
2023-02-11T01:31:36.195Z,27.13
2023-02-11T01:33:37.699Z,26.20
2023-02-11T01:35:40.518Z,26.45
2023-02-11T01:37:42.045Z,26.13
2023-02-11T01:39:43.468Z,25.27
2023-02-11T01:41:44.998Z,25.70
2023-02-11T01:43:49.953Z,25.05
2023-02-11T01:46:03.940Z,25.70
2023-02-11T01:50:06.932Z,23.20
2023-02-11T01:52:29.561Z,22.80
2023-02-11T01:54:36.713Z,21.02
2023-02-11T01:56:43.702Z,22.42
2023-02-11T01:58:48.737Z,23.33
2023-02-11T02:00:50.658Z,24.00
2023-02-11T02:03:05.238Z,22.80
2023-02-11T02:05:21.616Z,23.50
2023-02-11T02:07:36.932Z,23.25
2023-02-11T02:09:44.225Z,21.75
2023-02-11T02:11:45.658Z,23.10
2023-02-11T02:13:47.157Z,24.55
2023-02-11T02:15:57.032Z,22.63
2023-02-11T02:18:49.779Z,20.92
2023-02-11T02:23:54.535Z,22.10
2023-02-11T02:26:14.219Z,19.23
2023-02-11T02:28:34.503Z,20.35
2023-02-11T02:31:20.696Z,21.25
2023-02-11T02:33:33.295Z,19.02
2023-02-11T02:35:53.131Z,21.85
2023-02-11T02:38:02.206Z,22.40
2023-02-11T02:40:12.297Z,23.40
2023-02-11T02:42:14.897Z,24.08
2023-02-11T02:44:16.776Z,53.45
2023-02-11T02:46:21.861Z,48.45
2023-02-11T02:48:33.792Z,63.05
2023-02-11T02:50:37.370Z,34.85
2023-02-11T02:55:21.537Z,136.55
2023-02-11T02:57:54.064Z,128.88
2023-02-11T02:59:55.450Z,141.60
2023-02-11T03:02:10.799Z,108.00
2023-02-11T03:04:22.758Z,99.28
2023-02-11T03:06:32.793Z,91.18
2023-02-11T03:08:44.353Z,141.10
2023-02-11T03:10:49.957Z,59.22
2023-02-11T03:12:53.534Z,49.70
2023-02-11T03:17:00.898Z,33.33
2023-02-11T03:19:17.158Z,40.72
2023-02-11T03:21:20.622Z,25.77
2023-02-11T03:23:44.844Z,23.15
2023-02-11T03:25:52.882Z,23.45
2023-02-11T03:28:10.145Z,22.42
2023-02-11T03:30:18.588Z,21.38
2023-02-11T03:32:32.739Z,23.25
2023-02-11T03:34:45.552Z,90.82
2023-02-11T03:36:56.969Z,147.55
2023-02-11T03:39:02.684Z,82.82
2023-02-11T03:41:07.845Z,62.90
2023-02-11T03:43:19.199Z,85.32
2023-02-11T03:45:23.556Z,39.92
2023-02-11T03:47:27.864Z,40.05
2023-02-11T03:49:32.155Z,41.05
2023-02-11T03:51:35.436Z,34.40
2023-02-11T03:53:41.082Z,26.83
2023-02-11T03:55:44.109Z,25.85
2023-02-11T03:57:46.840Z,23.70
2023-02-11T03:59:56.912Z,23.97
2023-02-11T04:01:58.583Z,23.40
2023-02-11T04:04:00.196Z,23.52
2023-02-11T04:06:01.992Z,25.40
2023-02-11T04:08:03.777Z,25.45
2023-02-11T04:10:05.848Z,22.25
2023-02-11T04:12:07.928Z,23.27
2023-02-11T04:14:09.582Z,23.50
2023-02-11T04:16:11.224Z,23.48
2023-02-11T04:18:12.642Z,24.20
2023-02-11T04:20:14.269Z,24.40
2023-02-11T04:22:15.854Z,24.90
2023-02-11T04:24:17.413Z,24.17
2023-02-11T04:26:18.837Z,24.65
2023-02-11T04:28:20.505Z,22.95
2023-02-11T04:30:22.129Z,24.20
2023-02-11T04:32:23.565Z,23.35
2023-02-11T04:34:25.177Z,25.85
2023-02-11T04:36:26.830Z,24.02
2023-02-11T04:38:28.246Z,23.67
2023-02-11T04:40:29.780Z,24.42
2023-02-11T04:42:31.437Z,24.50
2023-02-11T04:44:32.961Z,25.15
2023-02-11T04:46:34.367Z,25.17
2023-02-11T04:48:35.909Z,26.45
2023-02-11T04:50:37.315Z,25.30
2023-02-11T04:52:38.751Z,25.80
2023-02-11T04:54:40.380Z,25.55
2023-02-11T04:56:41.828Z,27.13
2023-02-11T04:58:43.478Z,26.52
2023-02-11T05:00:45.018Z,26.50
2023-02-11T05:02:46.488Z,24.33
2023-02-11T05:04:48.177Z,27.08
2023-02-11T05:06:49.746Z,25.20
2023-02-11T05:08:51.201Z,27.23
2023-02-11T05:10:52.773Z,27.00
2023-02-11T05:12:55.961Z,25.95
2023-02-11T05:14:57.569Z,27.58
2023-02-11T05:16:59.484Z,28.05
2023-02-11T05:19:00.999Z,26.65
2023-02-11T05:21:06.525Z,28.35
2023-02-11T05:23:08.225Z,27.90
2023-02-11T05:25:09.832Z,29.52
2023-02-11T05:27:11.247Z,29.10
2023-02-11T05:29:12.800Z,27.17
2023-02-11T05:31:14.500Z,28.65
2023-02-11T05:33:15.958Z,33.13
2023-02-11T05:35:18.145Z,27.08
2023-02-11T05:37:19.736Z,28.92
2023-02-11T05:39:21.308Z,29.83
2023-02-11T05:41:22.999Z,27.13
2023-02-11T05:43:24.808Z,28.40
2023-02-11T05:45:26.381Z,30.27
2023-02-11T05:47:27.908Z,27.20
2023-02-11T05:49:29.396Z,29.48
2023-02-11T05:51:30.922Z,29.63
2023-02-11T05:53:32.634Z,28.13
2023-02-11T05:55:34.791Z,28.73
2023-02-11T05:57:36.248Z,28.15
2023-02-11T05:59:38.025Z,29.50
2023-02-11T06:01:39.572Z,29.38
2023-02-11T06:03:41.115Z,32.72
2023-02-11T06:05:43.997Z,30.73
2023-02-11T06:07:45.525Z,31.98
2023-02-11T06:09:46.922Z,38.08
2023-02-11T06:11:48.571Z,30.83
2023-02-11T06:13:51.142Z,29.88
2023-02-11T06:15:57.955Z,30.30
2023-02-11T06:17:59.466Z,29.67
2023-02-11T06:20:01.112Z,29.23
2023-02-11T06:22:02.530Z,32.05
2023-02-11T06:24:04.280Z,30.55
2023-02-11T06:26:07.740Z,30.13
2023-02-11T06:28:09.208Z,31.50
2023-02-11T06:30:11.326Z,30.13
2023-02-11T06:32:33.247Z,39.97
2023-02-11T06:34:34.702Z,29.65
2023-02-11T06:36:38.436Z,31.85
2023-02-11T06:38:39.951Z,36.05
2023-02-11T06:40:41.354Z,30.23
2023-02-11T06:42:43.533Z,30.92
2023-02-11T06:44:44.946Z,31.08
2023-02-11T06:46:46.564Z,33.67
2023-02-11T06:48:48.113Z,36.42
2023-02-11T06:50:49.614Z,32.10
2023-02-11T06:52:51.035Z,29.90
2023-02-11T06:54:52.513Z,32.05
2023-02-11T06:56:54.016Z,31.88
2023-02-11T06:58:56.264Z,32.33
2023-02-11T07:00:58.319Z,31.25
2023-02-11T07:02:59.756Z,31.10
2023-02-11T07:05:01.169Z,31.95
2023-02-11T07:07:02.583Z,30.13
2023-02-11T07:09:05.233Z,30.33
2023-02-11T07:11:16.215Z,33.83
2023-02-11T07:13:17.671Z,30.35
2023-02-11T07:15:19.280Z,31.77
2023-02-11T07:17:20.687Z,31.30
2023-02-11T07:19:22.429Z,30.27
2023-02-11T07:21:24.220Z,32.35
2023-02-11T07:23:25.868Z,32.15
2023-02-11T07:25:27.399Z,28.80
2023-02-11T07:27:28.822Z,31.08
2023-02-11T07:29:30.258Z,29.63
2023-02-11T07:31:32.297Z,30.33
2023-02-11T07:33:33.786Z,30.15
2023-02-11T07:35:35.224Z,30.48
2023-02-11T07:37:36.700Z,31.67
2023-02-11T07:39:38.161Z,32.08
2023-02-11T07:41:39.606Z,32.00
2023-02-11T07:43:41.678Z,34.22
2023-02-11T07:45:43.119Z,32.72
2023-02-11T07:47:44.543Z,34.92
2023-02-11T07:49:46.117Z,32.38
2023-02-11T07:51:47.545Z,32.03
2023-02-11T07:53:49.190Z,32.13
2023-02-11T07:55:50.940Z,34.13
2023-02-11T07:57:52.522Z,31.20
2023-02-11T07:59:53.927Z,35.83
2023-02-11T08:01:55.962Z,31.65
2023-02-11T08:03:59.282Z,31.48
2023-02-11T08:06:09.510Z,31.50
2023-02-11T08:08:11.257Z,31.67
2023-02-11T08:10:12.831Z,32.35
2023-02-11T08:12:14.231Z,32.47
2023-02-11T08:14:15.970Z,32.45
2023-02-11T08:16:36.056Z,34.78
2023-02-11T08:18:37.569Z,32.92
2023-02-11T08:20:39.149Z,31.58
2023-02-11T08:22:40.909Z,37.83
2023-02-11T08:24:42.484Z,35.45
2023-02-11T08:26:44.138Z,48.92
2023-02-11T08:28:47.491Z,33.92
2023-02-11T08:30:49.222Z,34.55
2023-02-11T08:32:51.432Z,36.95
2023-02-11T08:34:53.476Z,35.67
2023-02-11T08:36:54.915Z,31.35
2023-02-11T08:39:12.163Z,32.60
2023-02-11T08:41:19.296Z,37.42
2023-02-11T08:43:20.743Z,34.72
2023-02-11T08:45:22.242Z,33.47
2023-02-11T08:47:23.820Z,34.08
2023-02-11T08:49:25.249Z,34.67
2023-02-11T08:51:28.473Z,31.33
2023-02-11T08:53:30.011Z,34.63
2023-02-11T08:55:31.551Z,31.65
2023-02-11T08:57:33.161Z,33.70
2023-02-11T08:59:34.624Z,34.42
2023-02-11T09:01:36.358Z,35.38
2023-02-11T09:03:38.017Z,35.42
2023-02-11T09:05:43.496Z,34.85
2023-02-11T09:07:45.018Z,32.47
2023-02-11T09:09:46.780Z,32.53
2023-02-11T09:11:48.457Z,33.70
2023-02-11T09:13:52.603Z,33.65
2023-02-11T09:15:55.676Z,33.90
2023-02-11T09:17:57.528Z,34.75
2023-02-11T09:19:59.074Z,33.08
2023-02-11T09:22:01.783Z,39.47
2023-02-11T09:24:03.400Z,35.90
2023-02-11T09:26:09.614Z,33.53
2023-02-11T09:28:11.415Z,34.80
2023-02-11T09:30:13.345Z,33.13
2023-02-11T09:32:14.953Z,34.85
2023-02-11T09:34:16.749Z,31.83
2023-02-11T09:36:24.547Z,33.35
2023-02-11T09:38:26.204Z,33.58
2023-02-11T09:40:28.201Z,34.03
2023-02-11T09:43:02.327Z,63.47
2023-02-11T09:45:13.488Z,170.40
2023-02-11T09:47:32.261Z,50.75
2023-02-11T09:49:50.216Z,36.03
2023-02-11T09:52:05.024Z,33.05
2023-02-11T09:54:30.096Z,34.65
2023-02-11T09:56:31.522Z,42.00
2023-02-11T09:58:38.500Z,55.00
2023-02-11T10:00:46.978Z,77.03
2023-02-11T10:03:20.366Z,48.45
2023-02-11T10:05:50.034Z,37.95
2023-02-11T10:08:08.712Z,77.68
2023-02-11T10:10:25.080Z,87.40
2023-02-11T10:12:57.546Z,74.43
2023-02-11T10:15:06.352Z,57.50
2023-02-11T10:17:22.660Z,39.80
2023-02-11T10:20:06.129Z,94.07
2023-02-11T10:22:18.564Z,174.02
2023-02-11T10:24:20.513Z,90.40
2023-02-11T10:26:22.863Z,75.82
2023-02-11T10:28:30.951Z,46.55
2023-02-11T10:30:37.475Z,39.42
2023-02-11T10:33:01.235Z,35.67
2023-02-11T10:35:10.274Z,60.65
2023-02-11T10:37:13.865Z,47.70
2023-02-11T10:41:30.903Z,73.28
2023-02-11T10:43:33.307Z,39.95
2023-02-11T10:45:39.948Z,44.63
2023-02-11T10:47:41.865Z,51.90
2023-02-11T10:49:46.045Z,47.15
2023-02-11T10:51:48.199Z,41.67
2023-02-11T10:54:04.453Z,52.17
2023-02-11T10:56:08.123Z,44.90
2023-02-11T11:00:38.249Z,33.97
2023-02-11T11:02:39.784Z,63.78
2023-02-11T11:04:43.749Z,71.28
2023-02-11T11:06:45.238Z,46.60
2023-02-11T11:08:51.375Z,37.65
2023-02-11T11:11:08.973Z,37.38
2023-02-11T11:13:33.326Z,37.80
2023-02-11T11:17:37.569Z,38.58
2023-02-11T11:19:39.017Z,33.50
2023-02-11T11:21:49.552Z,36.53
2023-02-11T11:23:57.162Z,41.25
2023-02-11T11:26:04.028Z,38.03
2023-02-11T11:28:05.519Z,35.33
2023-02-11T11:30:16.530Z,37.03
2023-02-11T11:32:23.535Z,46.03
2023-02-11T11:34:36.577Z,49.45
2023-02-11T11:36:40.216Z,70.30
2023-02-11T11:41:22.954Z,55.92
2023-02-11T11:43:24.471Z,43.25
2023-02-11T11:45:27.341Z,77.38
2023-02-11T11:47:50.302Z,43.92
2023-02-11T11:50:21.202Z,78.40
2023-02-11T11:52:41.210Z,40.97
2023-02-11T11:54:47.698Z,39.45
2023-02-11T11:57:10.576Z,51.78
2023-02-11T11:59:13.694Z,40.42
2023-02-11T12:01:41.307Z,39.03
2023-02-11T12:04:01.752Z,36.75
2023-02-11T12:06:12.274Z,36.05
2023-02-11T12:08:19.431Z,45.95
2023-02-11T12:10:46.871Z,67.40
2023-02-11T12:13:07.965Z,66.18
2023-02-11T12:15:32.864Z,67.53
2023-02-11T12:18:01.184Z,42.67
2023-02-11T12:20:16.950Z,39.72
2023-02-11T12:22:48.810Z,35.65
2023-02-11T12:25:24.980Z,43.80
2023-02-11T12:27:29.344Z,33.92
2023-02-11T12:29:41.587Z,35.25
2023-02-11T12:32:00.655Z,38.17
2023-02-11T12:34:28.858Z,38.72
2023-02-11T12:36:33.230Z,37.13
2023-02-11T12:38:46.362Z,36.72
2023-02-11T12:41:15.067Z,36.43
2023-02-11T12:43:46.588Z,36.78
2023-02-11T12:45:59.371Z,33.90
2023-02-11T12:48:31.186Z,31.92
2023-02-11T12:50:47.817Z,33.03
2023-02-11T12:52:55.418Z,41.70
2023-02-11T12:55:04.225Z,34.92
2023-02-11T12:57:31.017Z,36.78
2023-02-11T12:59:49.911Z,40.83
2023-02-11T13:01:52.160Z,37.10
2023-02-11T13:03:56.120Z,34.65
2023-02-11T13:06:03.742Z,32.85
2023-02-11T13:08:14.480Z,31.98
2023-02-11T13:10:37.591Z,30.50
2023-02-11T13:12:40.185Z,33.17
2023-02-11T13:14:42.002Z,35.67
2023-02-11T13:16:49.718Z,34.67
2023-02-11T13:19:06.705Z,32.90
2023-02-11T13:21:34.587Z,31.90
2023-02-11T13:23:49.189Z,34.47
2023-02-11T13:26:13.079Z,33.35
2023-02-11T13:28:23.156Z,34.20
2023-02-11T13:30:35.805Z,34.90
2023-02-11T13:32:55.605Z,31.40
2023-02-11T13:34:58.413Z,34.92
2023-02-11T13:36:59.865Z,29.57
2023-02-11T13:39:06.546Z,31.38
2023-02-11T13:41:24.489Z,32.70
2023-02-11T13:43:27.970Z,32.28
2023-02-11T13:45:42.549Z,32.58
2023-02-11T13:47:44.392Z,32.17
2023-02-11T13:49:51.348Z,32.38
2023-02-11T13:51:53.709Z,28.80
2023-02-11T13:53:57.643Z,30.67
2023-02-11T13:56:09.946Z,28.90
2023-02-11T13:58:14.370Z,30.55
2023-02-11T14:00:34.129Z,29.27
2023-02-11T14:02:37.243Z,29.65
2023-02-11T14:05:01.390Z,31.13
2023-02-11T14:07:27.603Z,30.63
2023-02-11T14:09:38.642Z,29.77
2023-02-11T14:11:40.197Z,31.10
2023-02-11T14:13:47.747Z,31.92
2023-02-11T14:15:49.384Z,32.63
2023-02-11T14:17:51.050Z,32.42
2023-02-11T14:19:52.602Z,31.50
2023-02-11T14:22:03.024Z,31.90
2023-02-11T14:24:04.494Z,32.35
2023-02-11T14:26:21.133Z,29.98
2023-02-11T14:28:26.765Z,29.27
2023-02-11T14:30:40.646Z,30.55
2023-02-11T14:32:51.044Z,31.02
2023-02-11T14:35:14.448Z,32.15
2023-02-11T14:37:41.659Z,31.83
2023-02-11T14:40:21.987Z,36.25
2023-02-11T14:42:26.718Z,31.27
2023-02-11T14:44:31.500Z,35.65
2023-02-11T14:46:33.790Z,28.58
2023-02-11T14:48:37.836Z,30.80
2023-02-11T14:50:45.081Z,34.40
2023-02-11T14:52:47.381Z,36.25
2023-02-11T14:54:51.049Z,36.08
2023-02-11T14:59:17.760Z,32.22
2023-02-11T15:01:50.264Z,38.63
2023-02-11T15:03:51.847Z,34.85
2023-02-11T15:06:12.583Z,40.17
2023-02-11T15:08:15.150Z,36.88
2023-02-11T15:10:35.151Z,35.38
2023-02-11T15:12:37.958Z,36.85
2023-02-11T15:14:45.634Z,33.27
2023-02-11T15:16:48.312Z,39.80
2023-02-11T15:18:53.889Z,43.72
2023-02-11T15:20:55.319Z,45.50
2023-02-11T15:23:00.701Z,36.05
2023-02-11T15:25:15.340Z,40.72
2023-02-11T15:27:16.736Z,38.33
2023-02-11T15:29:18.305Z,46.25
2023-02-11T15:31:26.462Z,44.58
2023-02-11T15:33:28.002Z,50.50
2023-02-11T15:35:32.519Z,35.15
2023-02-11T15:37:34.256Z,37.17
2023-02-11T15:39:40.842Z,36.00
2023-02-11T15:41:42.342Z,32.65
2023-02-11T15:43:49.152Z,28.48
2023-02-11T15:46:01.839Z,37.42
2023-02-11T15:48:13.934Z,36.25
2023-02-11T15:50:24.839Z,36.40
2023-02-11T15:52:27.882Z,32.28
2023-02-11T15:54:30.281Z,31.10
2023-02-11T15:56:40.688Z,28.35
2023-02-11T15:58:46.144Z,27.75
2023-02-11T16:00:51.305Z,30.25
2023-02-11T16:02:53.025Z,33.63
2023-02-11T16:04:57.578Z,32.95
2023-02-11T16:06:59.180Z,31.02
2023-02-11T16:09:08.218Z,28.92
2023-02-11T16:11:34.949Z,29.58
2023-02-11T16:13:47.156Z,25.90
2023-02-11T16:15:52.615Z,30.02
2023-02-11T16:17:54.094Z,29.92
2023-02-11T16:19:56.055Z,29.33
2023-02-11T16:21:59.667Z,30.13
2023-02-11T16:26:26.705Z,30.83
2023-02-11T16:28:29.100Z,30.98
2023-02-11T16:30:39.464Z,25.65
2023-02-11T16:32:41.060Z,24.55
2023-02-11T16:34:42.675Z,26.70
2023-02-11T16:36:44.466Z,28.27
2023-02-11T16:38:46.062Z,25.63
2023-02-11T16:40:47.738Z,28.33
2023-02-11T16:42:49.743Z,27.75
2023-02-11T16:44:51.314Z,29.25
2023-02-11T16:46:53.300Z,28.10
2023-02-11T16:48:56.368Z,29.92
2023-02-11T16:50:58.240Z,42.03
2023-02-11T16:52:59.989Z,35.38
2023-02-11T16:55:01.576Z,37.35
2023-02-11T16:57:13.927Z,31.95
2023-02-11T16:59:15.409Z,31.40
2023-02-11T17:01:17.156Z,26.45
2023-02-11T17:03:24.762Z,24.35
2023-02-11T17:05:26.248Z,25.35
2023-02-11T17:07:28.632Z,28.80
2023-02-11T17:09:31.199Z,30.52
2023-02-11T17:11:32.925Z,27.33
2023-02-11T17:13:34.351Z,28.90
2023-02-11T17:15:36.423Z,28.02
2023-02-11T17:17:37.963Z,29.45
2023-02-11T17:19:40.561Z,27.13
2023-02-11T17:21:43.202Z,46.17
2023-02-11T17:23:45.052Z,38.15
2023-02-11T17:25:46.469Z,31.55
2023-02-11T17:27:47.969Z,29.60
2023-02-11T17:29:49.482Z,28.23
2023-02-11T17:31:52.298Z,28.42
2023-02-11T17:33:54.054Z,31.75
2023-02-11T17:35:55.639Z,34.35
2023-02-11T17:37:57.064Z,29.40
2023-02-11T17:39:58.692Z,33.35
2023-02-11T17:42:00.282Z,30.05
2023-02-11T17:44:02.403Z,26.75
2023-02-11T17:46:06.779Z,37.35
2023-02-11T17:48:08.430Z,24.83
2023-02-11T17:50:10.270Z,29.45
2023-02-11T17:52:11.896Z,33.42
2023-02-11T17:54:16.054Z,37.30
2023-02-11T17:56:17.955Z,37.15
2023-02-11T17:58:19.496Z,29.58
2023-02-11T18:00:21.490Z,24.58
2023-02-11T18:02:22.978Z,25.77
2023-02-11T18:04:24.574Z,24.13
2023-02-11T18:06:26.108Z,24.15
2023-02-11T18:08:27.658Z,25.80
2023-02-11T18:10:29.337Z,23.25
2023-02-11T18:12:30.836Z,24.08
2023-02-11T18:14:32.457Z,25.95
2023-02-11T18:16:34.318Z,23.08
2023-02-11T18:18:35.928Z,27.63
2023-02-11T18:20:37.570Z,25.15
2023-02-11T18:22:40.641Z,22.02
2023-02-11T18:24:42.466Z,25.67
2023-02-11T18:26:43.914Z,25.38
2023-02-11T18:28:46.188Z,26.85
2023-02-11T18:30:47.807Z,22.60
2023-02-11T18:32:53.873Z,23.63
2023-02-11T18:34:55.401Z,24.27
2023-02-11T18:36:56.868Z,25.52
2023-02-11T18:38:58.442Z,23.75
2023-02-11T18:41:00.015Z,27.05
2023-02-11T18:43:01.521Z,23.13
2023-02-11T18:45:04.056Z,23.90
2023-02-11T18:47:05.640Z,21.70
2023-02-11T18:49:07.127Z,27.00
2023-02-11T18:51:17.716Z,23.17
2023-02-11T18:53:19.296Z,25.80
2023-02-11T18:55:23.533Z,23.52
2023-02-11T18:57:25.144Z,25.08
2023-02-11T18:59:26.698Z,22.45
2023-02-11T19:01:29.356Z,33.63
2023-02-11T19:03:30.785Z,52.08
2023-02-11T19:05:32.342Z,43.25
2023-02-11T19:07:33.829Z,43.67
2023-02-11T19:09:35.368Z,41.78
2023-02-11T19:11:39.029Z,41.80
2023-02-11T19:15:46.187Z,34.53
2023-02-11T19:17:47.813Z,66.60
2023-02-11T19:19:49.397Z,49.22
2023-02-11T19:21:51.027Z,35.47
2023-02-11T19:23:52.601Z,36.13
2023-02-11T19:25:54.401Z,35.03
2023-02-11T19:27:55.952Z,34.70
2023-02-11T19:29:57.445Z,32.85
2023-02-11T19:31:59.299Z,27.55
2023-02-11T19:34:02.281Z,30.23
2023-02-11T19:36:08.330Z,27.95
2023-02-11T19:38:09.833Z,25.08
2023-02-11T19:40:12.865Z,27.48
2023-02-11T19:42:14.962Z,35.08
2023-02-11T19:44:16.462Z,27.45
2023-02-11T19:46:21.098Z,55.35
2023-02-11T19:48:23.859Z,25.40
2023-02-11T19:50:25.480Z,32.23
2023-02-11T19:52:26.975Z,25.08
2023-02-11T19:54:28.565Z,26.00
2023-02-11T19:56:30.073Z,29.58
2023-02-11T19:58:31.529Z,39.45
2023-02-11T20:00:33.223Z,22.42
2023-02-11T20:02:37.799Z,34.38
2023-02-11T20:04:39.353Z,30.38
2023-02-11T20:06:40.964Z,28.88
2023-02-11T20:08:42.763Z,31.48
2023-02-11T20:10:44.174Z,23.80
2023-02-11T20:12:45.679Z,27.45
2023-02-11T20:14:47.339Z,32.35
2023-02-11T20:16:50.078Z,29.55
2023-02-11T20:18:52.677Z,26.95
2023-02-11T20:20:54.176Z,31.50
2023-02-11T20:22:55.597Z,28.08
2023-02-11T20:24:57.183Z,26.67
2023-02-11T20:26:58.689Z,37.63
2023-02-11T20:29:01.150Z,28.15
2023-02-11T20:31:03.310Z,28.02
2023-02-11T20:33:04.827Z,29.83
2023-02-11T20:35:08.029Z,35.80
2023-02-11T20:37:09.707Z,31.30
2023-02-11T20:39:11.392Z,29.45
2023-02-11T20:41:34.722Z,27.48
2023-02-11T20:43:37.946Z,27.45
2023-02-11T20:45:39.459Z,21.83
2023-02-11T20:47:40.948Z,22.98
2023-02-11T20:49:42.445Z,23.30
2023-02-11T20:51:43.883Z,23.73
2023-02-11T20:53:47.110Z,23.10
2023-02-11T20:55:48.629Z,22.67
2023-02-11T20:57:50.089Z,22.70
2023-02-11T20:59:51.705Z,19.50
2023-02-11T21:01:55.961Z,22.50
2023-02-11T21:04:00.640Z,23.80
2023-02-11T21:06:02.211Z,25.35
2023-02-11T21:08:04.095Z,21.63
2023-02-11T21:10:06.043Z,24.20
2023-02-11T21:12:07.802Z,23.73
2023-02-11T21:14:10.435Z,20.73
2023-02-11T21:16:16.050Z,20.45
2023-02-11T21:18:17.501Z,19.30
2023-02-11T21:20:19.108Z,18.90
2023-02-11T21:22:20.508Z,19.60
2023-02-11T21:24:21.930Z,27.27
2023-02-11T21:26:23.996Z,11.07
2023-02-11T21:28:25.659Z,11.48
2023-02-11T21:30:27.123Z,14.57
2023-02-11T21:32:28.734Z,10.10
2023-02-11T21:34:30.199Z,6.13
2023-02-11T21:36:31.965Z,6.43
2023-02-11T21:38:33.825Z,6.82
2023-02-11T21:40:35.277Z,10.52
2023-02-11T21:42:36.686Z,8.57
2023-02-11T21:44:38.265Z,8.43
2023-02-11T21:46:39.719Z,5.05
2023-02-11T21:48:41.603Z,4.57
2023-02-11T21:50:46.002Z,4.18
2023-02-11T21:52:47.412Z,5.10
2023-02-11T21:54:51.977Z,5.50
2023-02-11T21:56:53.554Z,6.28
2023-02-11T21:58:56.843Z,5.20
2023-02-11T22:00:58.269Z,6.13
2023-02-11T22:02:59.869Z,5.18
2023-02-11T22:05:01.328Z,5.25
2023-02-11T22:07:02.940Z,7.70
2023-02-11T22:09:07.295Z,6.38
2023-02-11T22:11:12.079Z,9.00
2023-02-11T22:13:13.610Z,6.57
2023-02-11T22:15:15.569Z,8.35
2023-02-11T22:17:17.012Z,11.82
2023-02-11T22:19:18.429Z,8.73
2023-02-11T22:21:22.871Z,13.75
2023-02-11T22:23:24.310Z,10.40
2023-02-11T22:25:25.724Z,9.93
2023-02-11T22:27:27.650Z,17.85
2023-02-11T22:29:29.077Z,12.20
2023-02-11T22:31:33.190Z,15.65
2023-02-11T22:33:35.172Z,10.90
2023-02-11T22:35:36.618Z,8.82
2023-02-11T22:37:38.017Z,17.02
2023-02-11T22:39:39.626Z,24.40
2023-02-11T22:41:42.841Z,15.32
2023-02-11T22:43:44.650Z,22.80
2023-02-11T22:45:46.425Z,20.65
2023-02-11T22:47:47.880Z,9.00
2023-02-11T22:49:49.293Z,11.82
2023-02-11T22:51:50.861Z,8.77
2023-02-11T22:53:57.442Z,7.03
2023-02-11T22:56:04.042Z,10.68
2023-02-11T22:58:06.507Z,7.25
2023-02-11T23:00:09.589Z,6.32
2023-02-11T23:02:11.180Z,8.43
2023-02-11T23:04:15.690Z,7.28
2023-02-11T23:06:17.428Z,10.85
2023-02-11T23:08:18.838Z,5.45
2023-02-11T23:10:20.706Z,6.47
2023-02-11T23:12:22.134Z,6.45
2023-02-11T23:14:23.565Z,5.35
2023-02-11T23:16:28.192Z,4.65
2023-02-11T23:18:29.638Z,8.05
2023-02-11T23:20:31.047Z,5.40
2023-02-11T23:22:32.446Z,6.18
2023-02-11T23:24:33.843Z,9.27
2023-02-11T23:26:38.100Z,7.50
2023-02-11T23:28:39.788Z,5.95
2023-02-11T23:30:41.289Z,8.05
2023-02-11T23:32:42.690Z,6.10
2023-02-11T23:34:44.192Z,18.50
2023-02-11T23:36:45.617Z,20.27
2023-02-11T23:38:47.799Z,10.00
2023-02-11T23:40:49.307Z,14.60
2023-02-11T23:42:50.706Z,10.45
2023-02-11T23:44:52.132Z,8.52
2023-02-11T23:46:53.809Z,9.93
2023-02-11T23:48:55.703Z,5.30
2023-02-11T23:50:57.248Z,6.93
2023-02-11T23:52:58.924Z,17.95
2023-02-11T23:55:00.331Z,8.48
2023-02-11T23:57:01.744Z,9.98
2023-02-11T23:59:03.402Z,8.60
